createdAt,value
2023-03-15T00:01:27.164Z,0.30
2023-03-15T00:03:56.891Z,0.20
2023-03-15T00:06:26.965Z,0.20
2023-03-15T00:08:53.922Z,0.20
2023-03-15T00:11:20.829Z,0.20
2023-03-15T00:13:47.823Z,0.70
2023-03-15T00:16:17.597Z,0.30
2023-03-15T00:18:47.160Z,0.52
2023-03-15T00:21:16.982Z,0.30
2023-03-15T00:23:43.875Z,0.50
2023-03-15T00:26:10.878Z,0.30
2023-03-15T00:28:38.007Z,0.57
2023-03-15T00:31:12.626Z,0.32
2023-03-15T00:33:42.863Z,0.28
2023-03-15T00:36:11.523Z,0.17
2023-03-15T00:38:39.968Z,0.50
2023-03-15T00:41:13.859Z,0.40
2023-03-15T00:43:41.878Z,0.50
2023-03-15T00:46:09.033Z,0.40
2023-03-15T00:48:36.403Z,0.40
2023-03-15T00:51:09.296Z,0.50
2023-03-15T00:53:37.646Z,0.60
2023-03-15T00:56:10.466Z,0.45
2023-03-15T00:58:38.001Z,0.40
2023-03-15T01:01:10.501Z,0.30
2023-03-15T01:03:38.261Z,0.60
2023-03-15T01:06:16.780Z,0.40
2023-03-15T01:08:44.959Z,0.38
2023-03-15T01:11:18.467Z,0.40
2023-03-15T01:13:46.087Z,0.38
2023-03-15T01:16:14.488Z,0.55
2023-03-15T01:18:43.060Z,0.30
2023-03-15T01:21:12.975Z,0.20
2023-03-15T01:23:40.538Z,0.40
2023-03-15T01:26:10.896Z,0.63
2023-03-15T01:28:37.820Z,0.60
2023-03-15T01:31:05.084Z,0.65
2023-03-15T01:33:33.122Z,0.70
2023-03-15T01:36:02.980Z,0.68
2023-03-15T01:38:31.240Z,0.60
2023-03-15T01:40:58.278Z,0.68
2023-03-15T01:43:27.683Z,0.30
2023-03-15T01:46:02.288Z,0.47
2023-03-15T01:48:39.545Z,0.30
2023-03-15T01:53:57.077Z,0.30
2023-03-15T01:56:25.296Z,0.43
2023-03-15T01:58:53.737Z,0.35
2023-03-15T02:01:21.684Z,0.30
2023-03-15T02:03:54.324Z,0.28
2023-03-15T02:06:25.424Z,0.20
2023-03-15T02:08:59.796Z,0.30
2023-03-15T02:11:31.594Z,0.28
2023-03-15T02:14:00.049Z,0.10
2023-03-15T02:16:29.734Z,0.35
2023-03-15T02:19:00.380Z,0.22
2023-03-15T02:21:39.977Z,0.30
2023-03-15T02:24:12.559Z,0.38
2023-03-15T02:26:57.130Z,0.22
2023-03-15T02:29:28.571Z,0.40
2023-03-15T02:31:57.460Z,0.38
2023-03-15T02:34:26.034Z,0.30
2023-03-15T02:36:57.617Z,0.47
2023-03-15T02:39:27.499Z,0.45
2023-03-15T02:41:57.637Z,0.40
2023-03-15T02:44:33.706Z,0.40
2023-03-15T02:47:08.614Z,0.30
2023-03-15T02:49:40.828Z,0.30
2023-03-15T02:52:09.445Z,0.22
2023-03-15T02:54:36.726Z,0.30
2023-03-15T02:57:04.106Z,0.28
2023-03-15T02:59:34.498Z,0.20
2023-03-15T03:02:01.587Z,0.30
2023-03-15T03:04:28.624Z,0.20
2023-03-15T03:06:55.644Z,0.30
2023-03-15T03:09:27.939Z,0.30
2023-03-15T03:11:54.937Z,0.22
2023-03-15T03:14:24.933Z,0.38
2023-03-15T03:16:52.409Z,0.28
2023-03-15T03:19:19.471Z,0.20
2023-03-15T03:21:49.353Z,0.20
2023-03-15T03:24:18.184Z,0.20
2023-03-15T03:26:48.558Z,0.32
2023-03-15T03:29:16.604Z,0.20
2023-03-15T03:31:45.346Z,0.10
2023-03-15T03:34:15.486Z,0.20
2023-03-15T03:36:43.471Z,0.30
2023-03-15T03:39:12.028Z,0.30
2023-03-15T03:41:38.995Z,0.40
2023-03-15T03:44:07.012Z,0.30
2023-03-15T03:46:37.403Z,0.20
2023-03-15T03:49:04.469Z,0.20
2023-03-15T03:51:34.004Z,0.50
2023-03-15T03:54:04.445Z,0.10
2023-03-15T03:56:31.731Z,0.30
2023-03-15T03:58:58.673Z,0.20
2023-03-15T04:01:42.172Z,0.20
2023-03-15T04:04:14.125Z,0.20
2023-03-15T04:06:46.075Z,0.28
2023-03-15T04:09:16.401Z,0.20
2023-03-15T04:11:48.875Z,0.30
2023-03-15T04:14:17.369Z,0.45
2023-03-15T04:16:46.489Z,0.30
2023-03-15T04:19:16.491Z,0.30
2023-03-15T04:21:47.243Z,0.28
2023-03-15T04:24:26.807Z,0.25
2023-03-15T04:27:14.792Z,0.30
2023-03-15T04:30:05.302Z,0.30
2023-03-15T04:32:58.868Z,0.30
2023-03-15T04:35:39.615Z,0.50
2023-03-15T04:38:26.781Z,0.30
2023-03-15T04:41:14.044Z,0.38
2023-03-15T04:43:57.932Z,0.30
2023-03-15T04:46:36.382Z,0.30
2023-03-15T04:49:21.219Z,0.40
2023-03-15T04:52:05.076Z,0.35
2023-03-15T04:54:50.810Z,0.30
2023-03-15T04:57:35.060Z,0.40
2023-03-15T05:00:31.461Z,0.20
2023-03-15T05:03:26.654Z,0.20
2023-03-15T05:06:29.589Z,0.20
2023-03-15T05:09:28.570Z,0.20
2023-03-15T05:12:15.793Z,0.20
2023-03-15T05:14:42.981Z,0.30
2023-03-15T05:17:46.389Z,0.32
2023-03-15T05:20:23.720Z,0.30
2023-03-15T05:23:09.326Z,0.20
2023-03-15T05:26:08.519Z,0.25
2023-03-15T05:28:57.457Z,0.25
2023-03-15T05:31:42.637Z,0.35
2023-03-15T05:34:34.277Z,0.28
2023-03-15T05:37:24.191Z,0.15
2023-03-15T05:40:15.411Z,0.20
2023-03-15T05:43:08.408Z,0.20
2023-03-15T05:45:55.592Z,0.43
2023-03-15T05:48:40.979Z,0.20
2023-03-15T05:51:24.551Z,0.50
2023-03-15T05:54:07.762Z,0.30
2023-03-15T05:56:57.479Z,0.40
2023-03-15T05:59:24.411Z,0.52
2023-03-15T06:02:08.009Z,0.30
2023-03-15T06:04:43.274Z,0.30
2023-03-15T06:07:14.048Z,0.20
2023-03-15T06:09:41.154Z,0.20
2023-03-15T06:12:08.278Z,0.30
2023-03-15T06:14:37.020Z,0.20
2023-03-15T06:17:07.626Z,0.40
2023-03-15T06:19:36.301Z,0.20
2023-03-15T06:22:04.781Z,0.30
2023-03-15T06:24:40.595Z,0.20
2023-03-15T06:27:08.168Z,0.30
2023-03-15T06:29:36.244Z,0.25
2023-03-15T06:32:04.797Z,0.20
2023-03-15T06:34:33.963Z,0.47
2023-03-15T06:37:01.148Z,0.45
2023-03-15T06:39:28.037Z,0.50
2023-03-15T06:41:58.409Z,0.28
2023-03-15T06:44:27.158Z,0.20
2023-03-15T06:46:58.260Z,0.20
2023-03-15T06:49:25.296Z,0.35
2023-03-15T06:51:52.503Z,0.40
2023-03-15T06:54:19.596Z,0.47
2023-03-15T06:56:49.382Z,0.40
2023-03-15T06:59:16.659Z,0.52
2023-03-15T07:01:43.661Z,0.50
2023-03-15T07:04:10.677Z,0.40
2023-03-15T07:06:37.768Z,0.28
2023-03-15T07:09:05.630Z,0.20
2023-03-15T07:11:33.348Z,0.40
2023-03-15T07:14:00.442Z,0.20
2023-03-15T07:16:27.351Z,0.22
2023-03-15T07:18:56.194Z,0.20
2023-03-15T07:21:23.125Z,0.32
2023-03-15T07:23:50.391Z,0.30
2023-03-15T07:26:17.405Z,0.20
2023-03-15T07:28:44.810Z,0.20
2023-03-15T07:31:12.375Z,0.10
2023-03-15T07:33:40.146Z,0.20
2023-03-15T07:36:08.363Z,0.20
2023-03-15T07:38:35.997Z,0.20
2023-03-15T07:41:04.350Z,0.50
2023-03-15T07:43:32.038Z,0.50
2023-03-15T07:46:08.805Z,0.10
2023-03-15T07:48:35.743Z,0.20
2023-03-15T07:51:02.771Z,0.30
2023-03-15T07:53:29.884Z,0.20
2023-03-15T07:55:56.843Z,0.20
2023-03-15T07:58:23.827Z,0.32
2023-03-15T08:00:50.800Z,0.30
2023-03-15T08:03:17.854Z,0.20
2023-03-15T08:05:44.809Z,0.20
2023-03-15T08:08:11.739Z,0.30
2023-03-15T08:10:38.739Z,0.20
2023-03-15T08:13:05.653Z,0.30
2023-03-15T08:15:32.708Z,0.15
2023-03-15T08:18:00.047Z,0.32
2023-03-15T08:20:29.700Z,0.55
2023-03-15T08:22:57.007Z,0.25
2023-03-15T08:25:25.118Z,0.30
2023-03-15T08:27:52.400Z,0.30
2023-03-15T08:30:21.128Z,0.32
2023-03-15T08:32:49.559Z,0.20
2023-03-15T08:35:18.487Z,0.30
2023-03-15T08:37:47.887Z,0.10
2023-03-15T08:40:19.053Z,0.30
2023-03-15T08:42:46.058Z,0.40
2023-03-15T08:45:13.181Z,0.25
2023-03-15T08:47:40.198Z,0.30
2023-03-15T08:50:11.646Z,0.30
2023-03-15T08:52:39.025Z,0.20
2023-03-15T08:55:06.643Z,0.22
2023-03-15T08:57:34.256Z,0.40
2023-03-15T09:00:07.238Z,0.30
2023-03-15T09:02:36.330Z,0.40
2023-03-15T09:05:08.664Z,0.40
2023-03-15T09:07:35.576Z,0.30
2023-03-15T09:10:05.664Z,0.50
2023-03-15T09:12:32.707Z,0.30
2023-03-15T09:14:59.597Z,0.22
2023-03-15T09:17:26.618Z,0.20
2023-03-15T09:19:53.584Z,0.45
2023-03-15T09:22:34.835Z,0.40
2023-03-15T09:25:05.454Z,0.32
2023-03-15T09:27:33.273Z,0.20
2023-03-15T09:30:00.596Z,0.50
2023-03-15T09:32:28.298Z,0.20
2023-03-15T09:34:55.535Z,0.30
2023-03-15T09:37:22.497Z,0.30
2023-03-15T09:39:49.475Z,0.40
2023-03-15T09:42:39.044Z,0.55
2023-03-15T09:45:21.042Z,0.40
2023-03-15T09:48:08.074Z,0.30
2023-03-15T09:50:52.453Z,0.30
2023-03-15T09:53:28.137Z,0.43
2023-03-15T09:55:55.318Z,0.63
2023-03-15T09:58:26.909Z,0.30
2023-03-15T10:01:07.060Z,0.38
2023-03-15T10:03:49.215Z,0.40
2023-03-15T10:06:20.629Z,0.30
2023-03-15T10:08:47.860Z,0.28
2023-03-15T10:11:34.236Z,0.32
2023-03-15T10:14:09.900Z,0.25
2023-03-15T10:19:45.810Z,0.55
2023-03-15T10:22:21.595Z,0.20
2023-03-15T10:27:34.810Z,0.25
2023-03-15T10:30:03.279Z,0.40
2023-03-15T10:32:38.876Z,0.28
2023-03-15T10:35:15.586Z,0.30
2023-03-15T10:37:43.327Z,0.38
2023-03-15T10:40:18.406Z,0.30
2023-03-15T10:42:47.008Z,0.45
2023-03-15T10:45:24.420Z,0.30
2023-03-15T10:47:59.555Z,0.30
2023-03-15T10:53:01.296Z,0.77
2023-03-15T10:55:33.142Z,0.20
2023-03-15T10:58:18.129Z,0.50
2023-03-15T11:01:02.466Z,0.40
2023-03-15T11:03:31.256Z,0.28
2023-03-15T11:05:59.672Z,0.30
2023-03-15T11:08:41.363Z,0.40
2023-03-15T11:11:09.517Z,0.22
2023-03-15T11:13:42.189Z,0.40
2023-03-15T11:16:15.467Z,0.40
2023-03-15T11:18:45.203Z,0.40
2023-03-15T11:21:18.637Z,0.35
2023-03-15T11:23:51.261Z,0.30
2023-03-15T11:26:32.629Z,0.25
2023-03-15T11:29:06.553Z,0.30
2023-03-15T11:31:35.625Z,0.40
2023-03-15T11:34:09.184Z,0.40
2023-03-15T11:36:41.069Z,0.20
2023-03-15T11:39:13.514Z,0.30
2023-03-15T11:41:49.507Z,0.30
2023-03-15T11:44:22.332Z,0.20
2023-03-15T11:46:54.332Z,0.60
2023-03-15T11:49:51.788Z,0.20
2023-03-15T11:52:22.074Z,0.30
2023-03-15T11:54:50.056Z,0.32
2023-03-15T11:57:29.242Z,0.30
2023-03-15T11:59:57.909Z,0.30
2023-03-15T12:02:26.382Z,0.57
2023-03-15T12:04:54.845Z,0.30
2023-03-15T12:07:24.442Z,0.30
2023-03-15T12:10:30.908Z,0.25
2023-03-15T12:12:59.878Z,0.40
2023-03-15T12:15:26.790Z,0.25
2023-03-15T12:17:59.689Z,0.20
2023-03-15T12:20:31.392Z,0.40
2023-03-15T12:23:20.945Z,0.30
2023-03-15T12:26:05.191Z,0.35
2023-03-15T12:28:50.503Z,0.20
2023-03-15T12:31:18.122Z,0.30
2023-03-15T12:33:52.224Z,0.20
2023-03-15T12:36:37.949Z,0.22
2023-03-15T12:39:16.747Z,0.22
2023-03-15T12:41:46.857Z,0.30
2023-03-15T12:44:33.402Z,0.20
2023-03-15T12:47:02.634Z,0.20
2023-03-15T12:49:31.701Z,0.40
2023-03-15T12:52:16.795Z,0.30
2023-03-15T12:54:43.709Z,0.20
2023-03-15T12:57:13.343Z,0.32
2023-03-15T12:59:51.634Z,0.20
2023-03-15T13:02:35.759Z,0.47
2023-03-15T13:05:25.796Z,0.52
2023-03-15T13:07:58.984Z,0.38
2023-03-15T13:10:37.980Z,0.30
2023-03-15T13:13:27.038Z,0.50
2023-03-15T13:16:38.607Z,0.30
2023-03-15T13:19:14.323Z,0.30
2023-03-15T13:24:23.193Z,0.20
2023-03-15T13:27:02.899Z,0.30
2023-03-15T13:29:32.313Z,0.22
2023-03-15T13:32:13.778Z,0.30
2023-03-15T13:34:41.949Z,0.30
2023-03-15T13:37:21.692Z,0.40
2023-03-15T13:40:00.381Z,0.63
2023-03-15T13:42:27.996Z,0.20
2023-03-15T13:45:15.687Z,0.30
2023-03-15T13:47:45.243Z,0.40
2023-03-15T13:50:18.064Z,0.40
2023-03-15T13:52:45.797Z,0.35
2023-03-15T13:55:14.768Z,0.25
2023-03-15T13:57:42.075Z,0.32
2023-03-15T14:00:17.758Z,0.43
2023-03-15T14:05:36.577Z,0.30
2023-03-15T14:08:17.729Z,0.30
2023-03-15T14:11:04.889Z,0.30
2023-03-15T14:13:46.673Z,0.52
2023-03-15T14:17:03.540Z,0.50
2023-03-15T14:19:36.826Z,0.30
2023-03-15T14:22:17.316Z,0.60
2023-03-15T14:24:48.508Z,0.38
2023-03-15T14:27:19.432Z,0.50
2023-03-15T14:29:57.835Z,0.25
2023-03-15T14:32:34.035Z,0.30
2023-03-15T14:35:08.021Z,0.30
2023-03-15T14:37:44.461Z,0.60
2023-03-15T14:40:22.349Z,0.32
2023-03-15T14:42:50.639Z,0.60
2023-03-15T14:45:18.741Z,0.28
2023-03-15T14:47:56.631Z,0.45
2023-03-15T14:50:30.864Z,0.30
2023-03-15T14:52:58.967Z,0.30
2023-03-15T14:55:33.426Z,0.70
2023-03-15T14:58:13.155Z,0.52
2023-03-15T15:00:41.233Z,0.40
2023-03-15T15:03:33.853Z,0.43
2023-03-15T15:06:02.377Z,0.45
2023-03-15T15:08:32.264Z,0.40
2023-03-15T15:11:00.068Z,0.25
2023-03-15T15:13:29.397Z,0.50
2023-03-15T15:15:57.376Z,0.38
2023-03-15T15:18:26.145Z,0.52
2023-03-15T15:20:55.834Z,0.57
2023-03-15T15:23:31.965Z,0.50
2023-03-15T15:26:01.727Z,0.63
2023-03-15T15:28:36.004Z,0.50
2023-03-15T15:31:06.433Z,0.50
2023-03-15T15:33:34.095Z,0.63
2023-03-15T15:36:01.846Z,0.43
2023-03-15T15:38:38.547Z,0.60
2023-03-15T15:41:21.753Z,0.60
2023-03-15T15:43:51.458Z,0.68
2023-03-15T15:46:18.730Z,0.60
2023-03-15T15:48:45.788Z,0.43
2023-03-15T15:51:23.279Z,0.65
2023-03-15T15:53:50.673Z,0.50
2023-03-15T15:56:18.336Z,0.70
2023-03-15T15:58:46.887Z,0.50
2023-03-15T16:01:15.176Z,0.55
2023-03-15T16:03:42.626Z,0.40
2023-03-15T16:06:20.052Z,0.57
2023-03-15T16:08:48.871Z,0.40
2023-03-15T16:11:16.670Z,0.60
2023-03-15T16:13:45.466Z,0.85
2023-03-15T16:16:16.860Z,1.25
2023-03-15T16:18:45.036Z,0.70
2023-03-15T16:21:34.168Z,0.88
2023-03-15T16:24:16.616Z,0.90
2023-03-15T16:26:45.302Z,0.60
2023-03-15T16:29:22.301Z,0.70
2023-03-15T16:31:50.985Z,0.60
2023-03-15T16:34:19.758Z,0.52
2023-03-15T16:36:49.729Z,0.50
2023-03-15T16:39:17.362Z,0.50
2023-03-15T16:41:44.376Z,0.70
2023-03-15T16:44:16.525Z,0.60
2023-03-15T16:46:44.203Z,0.85
2023-03-15T16:49:15.255Z,0.73
2023-03-15T16:51:46.306Z,0.80
2023-03-15T16:54:24.312Z,0.70
2023-03-15T16:56:54.818Z,0.70
2023-03-15T16:59:22.037Z,0.82
2023-03-15T17:01:50.547Z,0.85
2023-03-15T17:04:17.757Z,1.05
2023-03-15T17:06:46.633Z,0.90
2023-03-15T17:09:21.925Z,1.05
2023-03-15T17:11:51.851Z,1.00
2023-03-15T17:14:30.642Z,0.90
2023-03-15T17:16:57.632Z,0.70
2023-03-15T17:19:24.944Z,1.08
2023-03-15T17:21:53.028Z,0.90
2023-03-15T17:24:20.062Z,0.90
2023-03-15T17:26:47.065Z,0.90
2023-03-15T17:29:17.054Z,1.08
2023-03-15T17:31:44.642Z,0.73
2023-03-15T17:34:11.641Z,0.77
2023-03-15T17:36:38.731Z,0.80
2023-03-15T17:39:14.353Z,0.80
2023-03-15T17:44:11.045Z,0.70
2023-03-15T17:46:38.086Z,0.60
2023-03-15T17:49:07.091Z,0.63
2023-03-15T17:51:36.367Z,0.80
2023-03-15T17:54:14.997Z,1.10
2023-03-15T17:56:41.993Z,0.70
2023-03-15T17:59:12.640Z,0.80
2023-03-15T18:01:43.571Z,1.02
2023-03-15T18:04:12.774Z,0.90
2023-03-15T18:06:40.505Z,0.77
2023-03-15T18:09:11.063Z,1.10
2023-03-15T18:11:42.052Z,1.20
2023-03-15T18:14:14.018Z,1.25
2023-03-15T18:16:41.705Z,1.35
2023-03-15T18:19:09.034Z,1.30
2023-03-15T18:21:36.013Z,0.80
2023-03-15T18:24:03.380Z,0.98
2023-03-15T18:26:30.557Z,1.00
2023-03-15T18:28:57.489Z,1.20
2023-03-15T18:31:25.709Z,1.58
2023-03-15T18:33:53.485Z,1.40
2023-03-15T18:36:20.884Z,0.95
2023-03-15T18:38:48.057Z,0.88
2023-03-15T18:41:21.061Z,1.05
2023-03-15T18:43:51.648Z,1.00
2023-03-15T18:46:24.627Z,1.17
2023-03-15T18:48:55.743Z,1.08
2023-03-15T18:51:25.779Z,1.02
2023-03-15T18:53:53.069Z,1.33
2023-03-15T18:56:26.196Z,0.95
2023-03-15T18:58:54.225Z,1.17
2023-03-15T19:01:22.966Z,1.20
2023-03-15T19:03:51.491Z,1.30
2023-03-15T19:06:19.018Z,1.25
2023-03-15T19:08:46.366Z,1.50
2023-03-15T19:11:13.345Z,1.40
2023-03-15T19:13:40.716Z,1.08
2023-03-15T19:16:08.147Z,1.30
2023-03-15T19:18:35.113Z,1.65
2023-03-15T19:21:02.606Z,1.40
2023-03-15T19:23:29.686Z,1.75
2023-03-15T19:25:56.669Z,1.10
2023-03-15T19:28:23.639Z,1.30
2023-03-15T19:30:50.724Z,1.30
2023-03-15T19:33:17.640Z,1.08
2023-03-15T19:35:44.588Z,1.35
2023-03-15T19:38:11.546Z,1.33
2023-03-15T19:40:38.642Z,1.77
2023-03-15T19:43:05.615Z,1.55
2023-03-15T19:45:32.600Z,1.92
2023-03-15T19:47:59.512Z,1.58
2023-03-15T19:50:31.153Z,1.70
2023-03-15T19:52:58.653Z,1.67
2023-03-15T19:55:27.970Z,2.05
2023-03-15T19:57:56.638Z,2.28
2023-03-15T20:00:25.160Z,2.53
2023-03-15T20:02:52.631Z,2.60
2023-03-15T20:05:21.146Z,2.53
2023-03-15T20:07:51.164Z,2.42
2023-03-15T20:10:19.937Z,2.50
2023-03-15T20:12:47.943Z,3.20
2023-03-15T20:15:18.088Z,3.15
2023-03-15T20:17:46.356Z,3.25
2023-03-15T20:20:14.608Z,3.05
2023-03-15T20:22:43.628Z,3.38
2023-03-15T20:25:15.750Z,3.70
2023-03-15T20:27:43.116Z,3.92
2023-03-15T20:30:12.747Z,4.28
2023-03-15T20:32:40.205Z,4.97
2023-03-15T20:35:09.443Z,5.40
2023-03-15T20:37:40.284Z,5.03
2023-03-15T20:40:11.143Z,5.32
2023-03-15T20:42:38.974Z,6.70
2023-03-15T20:45:07.276Z,5.88
2023-03-15T20:47:34.509Z,6.43
2023-03-15T20:50:02.260Z,5.57
2023-03-15T20:52:29.381Z,6.25
2023-03-15T20:54:56.410Z,6.30
2023-03-15T20:57:23.356Z,6.30
2023-03-15T20:59:51.326Z,6.82
2023-03-15T21:02:19.697Z,6.70
2023-03-15T21:04:46.771Z,6.80
2023-03-15T21:07:14.606Z,6.43
2023-03-15T21:09:41.973Z,6.97
2023-03-15T21:12:09.027Z,6.28
2023-03-15T21:14:36.169Z,6.80
2023-03-15T21:17:03.373Z,7.18
2023-03-15T21:19:31.732Z,6.15
2023-03-15T21:22:00.734Z,6.28
2023-03-15T21:24:31.158Z,6.43
2023-03-15T21:26:58.491Z,6.55
2023-03-15T21:29:25.513Z,6.70
2023-03-15T21:31:52.540Z,6.40
2023-03-15T21:34:19.566Z,6.38
2023-03-15T21:36:46.437Z,6.63
2023-03-15T21:39:13.787Z,5.95
2023-03-15T21:41:40.828Z,5.30
2023-03-15T21:44:07.780Z,5.10
2023-03-15T21:46:35.164Z,5.10
2023-03-15T21:49:02.253Z,4.10
2023-03-15T21:51:29.530Z,13.52
2023-03-15T21:53:56.502Z,4.82
2023-03-15T21:56:26.165Z,4.63
2023-03-15T21:58:54.196Z,4.32
2023-03-15T22:01:22.726Z,4.60
2023-03-15T22:03:50.295Z,3.88
2023-03-15T22:06:17.325Z,4.63
2023-03-15T22:08:44.719Z,3.88
2023-03-15T22:11:11.678Z,3.28
2023-03-15T22:13:39.920Z,3.25
2023-03-15T22:16:07.513Z,3.55
2023-03-15T22:18:34.900Z,3.65
2023-03-15T22:21:01.969Z,3.20
2023-03-15T22:23:28.967Z,3.20
2023-03-15T22:25:57.105Z,4.47
2023-03-15T22:28:27.472Z,2.92
2023-03-15T22:30:54.586Z,2.88
2023-03-15T22:33:22.842Z,3.28
2023-03-15T22:35:58.029Z,2.90
2023-03-15T22:38:26.138Z,3.00
2023-03-15T22:41:01.808Z,2.80
2023-03-15T22:43:28.784Z,2.50
2023-03-15T22:45:55.788Z,2.20
2023-03-15T22:48:23.255Z,2.67
2023-03-15T22:51:13.279Z,2.05
2023-03-15T22:53:40.232Z,2.33
2023-03-15T22:56:07.904Z,2.53
2023-03-15T22:58:35.355Z,2.75
2023-03-15T23:01:02.591Z,2.92
2023-03-15T23:03:29.589Z,2.25
2023-03-15T23:05:57.415Z,2.00
2023-03-15T23:08:24.804Z,2.35
2023-03-15T23:10:51.939Z,2.63
2023-03-15T23:13:19.149Z,2.10
2023-03-15T23:15:46.082Z,2.30
2023-03-15T23:18:14.625Z,2.80
2023-03-15T23:20:45.248Z,2.10
2023-03-15T23:23:12.263Z,2.28
2023-03-15T23:25:40.002Z,1.75
2023-03-15T23:28:07.617Z,2.10
2023-03-15T23:30:35.996Z,2.22
2023-03-15T23:33:03.843Z,2.20
2023-03-15T23:35:31.836Z,1.83
2023-03-15T23:37:59.063Z,2.03
2023-03-15T23:40:26.504Z,1.83
2023-03-15T23:42:59.207Z,1.58
2023-03-15T23:45:29.807Z,1.60
2023-03-15T23:47:57.220Z,1.83
2023-03-15T23:50:26.526Z,1.85
2023-03-15T23:52:57.923Z,1.40
2023-03-15T23:55:24.943Z,1.90
2023-03-15T23:57:52.018Z,1.73
